createdAt,value
2023-03-15T00:02:02.275Z,1.42
2023-03-15T00:04:47.680Z,1.20
2023-03-15T00:07:33.027Z,1.08
2023-03-15T00:10:18.359Z,1.05
2023-03-15T00:13:03.789Z,0.88
2023-03-15T00:15:52.073Z,0.98
2023-03-15T00:18:37.651Z,0.77
2023-03-15T00:21:23.474Z,0.80
2023-03-15T00:24:09.822Z,0.70
2023-03-15T00:26:54.905Z,0.73
2023-03-15T00:29:40.394Z,0.80
2023-03-15T00:32:25.740Z,0.70
2023-03-15T00:35:12.886Z,0.93
2023-03-15T00:37:58.302Z,0.68
2023-03-15T00:40:43.782Z,0.55
2023-03-15T00:43:29.388Z,0.70
2023-03-15T00:46:16.033Z,0.63
2023-03-15T00:49:01.309Z,0.90
2023-03-15T00:51:46.713Z,0.90
2023-03-15T00:54:35.877Z,0.75
2023-03-15T00:57:22.256Z,0.70
2023-03-15T01:00:14.160Z,0.95
2023-03-15T01:02:59.644Z,0.77
2023-03-15T01:05:45.286Z,0.90
2023-03-15T01:08:31.376Z,0.88
2023-03-15T01:11:22.260Z,0.80
2023-03-15T01:14:08.840Z,0.90
2023-03-15T01:16:53.980Z,1.02
2023-03-15T01:19:39.580Z,0.80
2023-03-15T01:22:25.469Z,1.10
2023-03-15T01:25:11.038Z,0.85
2023-03-15T01:27:56.342Z,1.17
2023-03-15T01:30:49.874Z,1.00
2023-03-15T01:33:35.051Z,0.88
2023-03-15T01:36:20.850Z,1.15
2023-03-15T01:39:06.236Z,1.05
2023-03-15T01:41:59.030Z,1.50
2023-03-15T01:45:01.573Z,1.80
2023-03-15T01:50:32.854Z,2.08
2023-03-15T01:53:18.295Z,1.50
2023-03-15T01:56:06.007Z,1.80
2023-03-15T01:58:58.144Z,1.90
2023-03-15T02:01:45.634Z,1.60
2023-03-15T02:04:41.778Z,1.70
2023-03-15T02:07:34.491Z,1.67
2023-03-15T02:10:28.845Z,1.75
2023-03-15T02:13:19.259Z,1.27
2023-03-15T02:16:06.664Z,1.30
2023-03-15T02:18:58.599Z,1.30
2023-03-15T02:22:06.858Z,1.20
2023-03-15T02:25:01.186Z,1.08
2023-03-15T02:27:46.391Z,1.40
2023-03-15T02:30:33.853Z,1.20
2023-03-15T02:33:35.967Z,1.00
2023-03-15T02:36:27.000Z,1.23
2023-03-15T02:39:21.099Z,1.10
2023-03-15T02:42:07.309Z,1.40
2023-03-15T02:44:54.680Z,1.33
2023-03-15T02:47:40.410Z,1.20
2023-03-15T02:50:25.666Z,1.17
2023-03-15T02:53:12.237Z,1.25
2023-03-15T02:55:58.362Z,1.33
2023-03-15T02:58:46.786Z,1.02
2023-03-15T03:01:37.080Z,0.80
2023-03-15T03:04:22.503Z,1.02
2023-03-15T03:07:08.587Z,0.80
2023-03-15T03:10:06.273Z,1.00
2023-03-15T03:13:00.541Z,1.00
2023-03-15T03:15:58.726Z,0.80
2023-03-15T03:18:46.773Z,0.80
2023-03-15T03:21:32.393Z,0.70
2023-03-15T03:24:17.794Z,1.30
2023-03-15T03:27:04.847Z,0.90
2023-03-15T03:29:53.634Z,1.10
2023-03-15T03:32:41.149Z,0.80
2023-03-15T03:35:26.823Z,0.98
2023-03-15T03:38:14.789Z,1.10
2023-03-15T03:41:04.174Z,1.10
2023-03-15T03:43:51.460Z,1.20
2023-03-15T03:46:36.873Z,1.00
2023-03-15T03:49:22.273Z,1.30
2023-03-15T03:52:07.601Z,1.67
2023-03-15T03:54:54.022Z,1.42
2023-03-15T03:57:40.568Z,1.45
2023-03-15T04:00:27.746Z,1.33
2023-03-15T04:03:13.113Z,1.48
2023-03-15T04:06:05.474Z,1.38
2023-03-15T04:08:54.233Z,1.65
2023-03-15T04:11:56.950Z,1.20
2023-03-15T04:14:42.860Z,1.10
2023-03-15T04:17:30.429Z,1.25
2023-03-15T04:20:17.472Z,1.42
2023-03-15T04:23:03.677Z,1.42
2023-03-15T04:26:08.847Z,1.90
2023-03-15T04:29:15.126Z,2.15
2023-03-15T04:32:29.750Z,1.40
2023-03-15T04:35:36.205Z,1.45
2023-03-15T04:38:32.293Z,1.42
2023-03-15T04:41:36.710Z,1.30
2023-03-15T04:44:41.722Z,1.20
2023-03-15T04:47:46.928Z,1.35
2023-03-15T04:51:08.016Z,1.33
2023-03-15T04:54:02.927Z,1.10
2023-03-15T04:57:07.190Z,1.20
2023-03-15T05:00:13.194Z,1.70
2023-03-15T05:03:24.948Z,1.65
2023-03-15T05:06:25.577Z,1.30
2023-03-15T05:09:49.425Z,1.33
2023-03-15T05:12:51.967Z,1.25
2023-03-15T05:15:56.370Z,1.13
2023-03-15T05:19:21.706Z,0.80
2023-03-15T05:22:42.844Z,0.90
2023-03-15T05:25:38.840Z,0.85
2023-03-15T05:28:45.194Z,0.60
2023-03-15T05:31:52.276Z,0.50
2023-03-15T05:34:59.089Z,0.63
2023-03-15T05:38:04.597Z,0.57
2023-03-15T05:41:11.922Z,0.70
2023-03-15T05:44:04.791Z,0.50
2023-03-15T05:47:08.376Z,0.50
2023-03-15T05:50:29.885Z,0.63
2023-03-15T05:53:37.657Z,0.40
2023-03-15T05:56:38.405Z,0.30
2023-03-15T05:59:46.442Z,0.40
2023-03-15T06:02:40.889Z,0.50
2023-03-15T06:05:40.479Z,0.40
2023-03-15T06:08:31.384Z,0.43
2023-03-15T06:11:16.892Z,0.50
2023-03-15T06:14:02.304Z,0.43
2023-03-15T06:16:55.068Z,0.50
2023-03-15T06:19:41.871Z,0.57
2023-03-15T06:22:28.328Z,0.40
2023-03-15T06:25:17.677Z,0.40
2023-03-15T06:28:03.729Z,0.50
2023-03-15T06:30:49.811Z,0.50
2023-03-15T06:33:36.053Z,0.65
2023-03-15T06:36:21.503Z,0.57
2023-03-15T06:39:06.915Z,0.65
2023-03-15T06:41:53.610Z,0.60
2023-03-15T06:44:41.553Z,0.60
2023-03-15T06:47:27.850Z,0.60
2023-03-15T06:50:13.608Z,0.75
2023-03-15T06:52:59.822Z,0.60
2023-03-15T06:55:46.819Z,0.80
2023-03-15T06:58:31.926Z,0.90
2023-03-15T07:01:17.519Z,0.77
2023-03-15T07:04:02.967Z,0.93
2023-03-15T07:06:48.556Z,0.93
2023-03-15T07:09:33.577Z,0.90
2023-03-15T07:12:19.066Z,0.80
2023-03-15T07:15:04.706Z,1.27
2023-03-15T07:17:49.958Z,0.80
2023-03-15T07:20:37.728Z,1.20
2023-03-15T07:23:23.647Z,1.35
2023-03-15T07:26:08.922Z,1.75
2023-03-15T07:28:54.434Z,1.70
2023-03-15T07:31:39.716Z,1.90
2023-03-15T07:34:25.136Z,1.77
2023-03-15T07:37:10.719Z,1.40
2023-03-15T07:39:55.915Z,1.08
2023-03-15T07:42:41.667Z,1.40
2023-03-15T07:45:27.210Z,1.30
2023-03-15T07:48:13.157Z,1.00
2023-03-15T07:50:58.220Z,1.25
2023-03-15T07:53:43.686Z,1.27
2023-03-15T07:56:29.188Z,1.42
2023-03-15T07:59:15.509Z,1.00
2023-03-15T08:02:02.823Z,1.15
2023-03-15T08:04:50.815Z,1.08
2023-03-15T08:07:36.676Z,1.00
2023-03-15T08:10:22.148Z,1.00
2023-03-15T08:13:07.146Z,1.10
2023-03-15T08:15:52.605Z,1.27
2023-03-15T08:18:37.885Z,0.80
2023-03-15T08:21:23.272Z,0.98
2023-03-15T08:24:09.356Z,1.02
2023-03-15T08:26:54.822Z,1.00
2023-03-15T08:29:40.426Z,0.90
2023-03-15T08:32:25.903Z,0.98
2023-03-15T08:35:15.727Z,1.17
2023-03-15T08:38:02.599Z,1.08
2023-03-15T08:40:48.080Z,1.15
2023-03-15T08:43:33.619Z,1.17
2023-03-15T08:46:21.912Z,1.27
2023-03-15T08:49:07.535Z,1.35
2023-03-15T08:51:53.019Z,1.10
2023-03-15T08:54:38.889Z,0.88
2023-03-15T08:57:25.982Z,0.90
2023-03-15T09:00:22.769Z,0.80
2023-03-15T09:03:08.788Z,0.95
2023-03-15T09:06:00.613Z,1.13
2023-03-15T09:08:46.304Z,0.90
2023-03-15T09:11:31.639Z,1.00
2023-03-15T09:14:17.134Z,1.05
2023-03-15T09:17:03.131Z,0.82
2023-03-15T09:19:48.545Z,0.75
2023-03-15T09:22:39.583Z,0.90
2023-03-15T09:25:26.085Z,0.70
2023-03-15T09:28:11.983Z,0.60
2023-03-15T09:30:58.893Z,0.70
2023-03-15T09:33:49.633Z,0.73
2023-03-15T09:36:34.846Z,0.90
2023-03-15T09:39:21.803Z,0.80
2023-03-15T09:42:21.396Z,0.90
2023-03-15T09:45:28.878Z,0.55
2023-03-15T09:48:23.964Z,0.70
2023-03-15T09:51:16.420Z,0.60
2023-03-15T09:54:26.504Z,0.65
2023-03-15T09:57:21.500Z,0.60
2023-03-15T10:00:14.357Z,0.75
2023-03-15T10:03:06.823Z,0.73
2023-03-15T10:06:08.468Z,0.70
2023-03-15T10:08:59.752Z,0.93
2023-03-15T10:12:09.329Z,0.80
2023-03-15T10:15:16.053Z,0.70
2023-03-15T10:18:26.706Z,0.82
2023-03-15T10:21:21.891Z,0.80
2023-03-15T10:24:19.712Z,0.73
2023-03-15T10:27:31.762Z,0.80
2023-03-15T10:30:28.744Z,0.63
2023-03-15T10:33:16.225Z,0.77
2023-03-15T10:36:11.125Z,0.90
2023-03-15T10:38:58.243Z,0.70
2023-03-15T10:41:46.008Z,0.80
2023-03-15T10:44:37.529Z,0.60
2023-03-15T10:47:25.228Z,0.70
2023-03-15T10:50:27.800Z,0.75
2023-03-15T10:56:13.632Z,0.70
2023-03-15T10:59:12.061Z,0.75
2023-03-15T11:02:27.702Z,0.70
2023-03-15T11:05:13.343Z,0.70
2023-03-15T11:08:01.013Z,0.70
2023-03-15T11:10:56.150Z,0.70
2023-03-15T11:13:42.430Z,0.80
2023-03-15T11:16:36.171Z,0.85
2023-03-15T11:19:26.769Z,0.63
2023-03-15T11:22:13.973Z,0.52
2023-03-15T11:24:59.073Z,0.80
2023-03-15T11:27:46.975Z,0.82
2023-03-15T11:30:32.484Z,1.50
2023-03-15T11:33:33.894Z,1.38
2023-03-15T11:36:22.496Z,1.27
2023-03-15T11:39:14.919Z,1.10
2023-03-15T11:42:06.565Z,1.00
2023-03-15T11:44:55.664Z,0.63
2023-03-15T11:47:50.390Z,0.88
2023-03-15T11:50:35.710Z,0.80
2023-03-15T11:53:23.301Z,0.60
2023-03-15T11:56:45.202Z,0.60
2023-03-15T11:59:32.915Z,0.80
2023-03-15T12:02:18.410Z,0.90
2023-03-15T12:05:17.665Z,0.60
2023-03-15T12:08:22.248Z,0.60
2023-03-15T12:11:22.784Z,0.82
2023-03-15T12:14:28.814Z,1.10
2023-03-15T12:17:28.842Z,1.10
2023-03-15T12:20:18.177Z,0.75
2023-03-15T12:23:18.282Z,1.00
2023-03-15T12:26:03.454Z,0.80
2023-03-15T12:29:00.768Z,0.88
2023-03-15T12:31:54.476Z,0.60
2023-03-15T12:34:42.877Z,1.15
2023-03-15T12:37:47.046Z,0.90
2023-03-15T12:40:47.604Z,1.08
2023-03-15T12:43:37.138Z,0.95
2023-03-15T12:46:41.275Z,0.90
2023-03-15T12:49:26.745Z,1.00
2023-03-15T12:52:12.178Z,0.75
2023-03-15T12:55:04.760Z,0.70
2023-03-15T12:57:54.076Z,0.80
2023-03-15T13:00:42.068Z,0.85
2023-03-15T13:03:27.437Z,1.08
2023-03-15T13:06:34.393Z,0.82
2023-03-15T13:09:39.159Z,1.00
2023-03-15T13:12:41.739Z,0.68
2023-03-15T13:15:36.320Z,0.80
2023-03-15T13:18:24.314Z,0.70
2023-03-15T13:21:28.237Z,1.23
2023-03-15T13:24:34.280Z,1.33
2023-03-15T13:27:51.478Z,1.92
2023-03-15T13:30:49.670Z,1.58
2023-03-15T13:33:34.746Z,1.25
2023-03-15T13:36:20.623Z,0.90
2023-03-15T13:39:27.127Z,0.77
2023-03-15T13:42:19.213Z,0.82
2023-03-15T13:45:15.217Z,0.95
2023-03-15T13:48:04.858Z,0.90
2023-03-15T13:50:50.652Z,1.00
2023-03-15T13:53:49.770Z,1.10
2023-03-15T13:56:49.386Z,0.88
2023-03-15T13:59:42.794Z,0.90
2023-03-15T14:02:45.612Z,0.90
2023-03-15T14:05:33.594Z,0.90
2023-03-15T14:08:32.516Z,0.80
2023-03-15T14:11:31.154Z,0.98
2023-03-15T14:14:25.584Z,0.85
2023-03-15T14:17:28.120Z,0.88
2023-03-15T14:20:17.163Z,0.70
2023-03-15T14:23:04.580Z,0.98
2023-03-15T14:26:05.744Z,1.10
2023-03-15T14:29:02.215Z,1.00
2023-03-15T14:31:50.961Z,0.70
2023-03-15T14:34:47.480Z,0.60
2023-03-15T14:37:41.688Z,0.80
2023-03-15T14:40:38.516Z,0.90
2023-03-15T14:43:23.861Z,0.85
2023-03-15T14:46:09.609Z,0.60
2023-03-15T14:48:54.667Z,0.80
2023-03-15T14:51:40.235Z,0.77
2023-03-15T14:54:25.778Z,0.70
2023-03-15T14:57:11.612Z,0.80
2023-03-15T14:59:57.175Z,0.82
2023-03-15T15:02:44.255Z,0.70
2023-03-15T15:05:31.682Z,0.75
2023-03-15T15:08:20.246Z,0.77
2023-03-15T15:11:06.761Z,0.80
2023-03-15T15:13:52.425Z,0.80
2023-03-15T15:16:37.682Z,0.90
2023-03-15T15:19:23.047Z,1.00
2023-03-15T15:22:11.058Z,0.85
2023-03-15T15:24:56.779Z,2.75
2023-03-15T15:27:42.727Z,1.90
2023-03-15T15:30:29.969Z,2.00
2023-03-15T15:33:15.451Z,1.50
2023-03-15T15:36:01.670Z,1.33
2023-03-15T15:38:47.646Z,1.25
2023-03-15T15:41:32.918Z,1.30
2023-03-15T15:44:20.749Z,1.10
2023-03-15T15:47:06.475Z,1.10
2023-03-15T15:49:51.881Z,0.90
2023-03-15T15:52:40.497Z,1.00
2023-03-15T15:55:28.231Z,0.75
2023-03-15T15:58:14.427Z,0.80
2023-03-15T16:00:59.391Z,1.00
2023-03-15T16:03:44.900Z,0.80
2023-03-15T16:06:30.848Z,0.80
2023-03-15T16:09:18.468Z,1.00
2023-03-15T16:12:12.646Z,0.80
2023-03-15T16:14:57.904Z,0.75
2023-03-15T16:17:44.619Z,0.90
2023-03-15T16:20:30.443Z,0.60
2023-03-15T16:23:22.433Z,0.70
2023-03-15T16:26:10.276Z,0.80
2023-03-15T16:28:55.537Z,0.70
2023-03-15T16:31:42.183Z,0.80
2023-03-15T16:34:27.610Z,0.82
2023-03-15T16:37:15.781Z,0.85
2023-03-15T16:40:01.808Z,0.63
2023-03-15T16:42:48.810Z,0.57
2023-03-15T16:45:33.986Z,0.60
2023-03-15T16:48:19.590Z,0.68
2023-03-15T16:51:05.108Z,0.60
2023-03-15T16:53:50.739Z,0.80
2023-03-15T16:56:37.082Z,0.60
2023-03-15T16:59:22.543Z,0.63
2023-03-15T17:02:22.761Z,0.57
2023-03-15T17:05:08.673Z,0.73
2023-03-15T17:07:55.355Z,0.52
2023-03-15T17:10:41.913Z,0.50
2023-03-15T17:13:29.598Z,0.60
2023-03-15T17:16:16.895Z,0.80
2023-03-15T17:19:02.402Z,0.80
2023-03-15T17:21:47.828Z,0.70
2023-03-15T17:24:34.470Z,0.70
2023-03-15T17:27:34.309Z,0.60
2023-03-15T17:30:29.304Z,0.70
2023-03-15T17:33:14.824Z,0.47
2023-03-15T17:36:01.354Z,0.57
2023-03-15T17:38:47.848Z,0.70
2023-03-15T17:41:38.184Z,0.57
2023-03-15T17:44:23.506Z,0.60
2023-03-15T17:47:12.861Z,0.70
2023-03-15T17:49:58.422Z,0.65
2023-03-15T17:52:45.267Z,0.50
2023-03-15T17:55:34.813Z,0.68
2023-03-15T17:58:22.728Z,0.70
2023-03-15T18:01:16.849Z,0.50
2023-03-15T18:04:03.264Z,0.60
2023-03-15T18:06:48.371Z,0.70
2023-03-15T18:09:34.079Z,0.50
2023-03-15T18:12:21.005Z,0.50
2023-03-15T18:15:06.557Z,0.50
2023-03-15T18:17:52.218Z,0.60
2023-03-15T18:20:38.881Z,0.50
2023-03-15T18:23:24.144Z,0.68
2023-03-15T18:26:11.274Z,0.70
2023-03-15T18:28:56.735Z,0.75
2023-03-15T18:31:43.170Z,0.68
2023-03-15T18:34:28.734Z,0.68
2023-03-15T18:37:14.341Z,0.70
2023-03-15T18:39:59.991Z,0.60
2023-03-15T18:42:46.253Z,0.68
2023-03-15T18:45:33.877Z,0.85
2023-03-15T18:48:27.892Z,0.70
2023-03-15T18:51:22.754Z,0.93
2023-03-15T18:54:08.006Z,0.95
2023-03-15T18:56:53.676Z,0.90
2023-03-15T18:59:38.703Z,0.82
2023-03-15T19:02:24.383Z,1.10
2023-03-15T19:05:11.812Z,0.80
2023-03-15T19:07:57.317Z,1.20
2023-03-15T19:10:44.664Z,0.90
2023-03-15T19:13:30.711Z,0.90
2023-03-15T19:16:16.005Z,1.15
2023-03-15T19:19:01.606Z,1.30
2023-03-15T19:21:47.014Z,1.23
2023-03-15T19:24:35.139Z,1.05
2023-03-15T19:27:20.482Z,1.10
2023-03-15T19:30:09.028Z,1.10
2023-03-15T19:32:54.965Z,1.10
2023-03-15T19:35:40.542Z,1.20
2023-03-15T19:38:26.236Z,1.50
2023-03-15T19:41:12.947Z,0.90
2023-03-15T19:43:58.265Z,1.40
2023-03-15T19:46:45.300Z,1.30
2023-03-15T19:49:31.263Z,1.60
2023-03-15T19:52:16.629Z,2.13
2023-03-15T19:55:02.211Z,2.25
2023-03-15T19:57:48.118Z,2.45
2023-03-15T20:00:33.539Z,2.53
2023-03-15T20:03:19.072Z,2.63
2023-03-15T20:06:09.995Z,2.50
2023-03-15T20:08:55.942Z,2.25
2023-03-15T20:11:41.134Z,2.53
2023-03-15T20:14:26.559Z,2.65
2023-03-15T20:17:11.899Z,2.60
2023-03-15T20:19:57.595Z,2.90
2023-03-15T20:22:44.850Z,2.88
2023-03-15T20:25:30.105Z,2.53
2023-03-15T20:28:16.292Z,2.30
2023-03-15T20:31:13.107Z,2.40
2023-03-15T20:33:58.859Z,2.55
2023-03-15T20:36:44.139Z,2.50
2023-03-15T20:39:29.845Z,2.90
2023-03-15T20:42:15.007Z,2.83
2023-03-15T20:45:00.736Z,2.90
2023-03-15T20:47:45.954Z,2.80
2023-03-15T20:50:31.433Z,2.80
2023-03-15T20:53:17.029Z,2.95
2023-03-15T20:56:03.271Z,2.58
2023-03-15T20:58:48.769Z,2.50
2023-03-15T21:01:34.397Z,2.88
2023-03-15T21:04:26.084Z,3.00
2023-03-15T21:07:11.665Z,2.88
2023-03-15T21:09:57.263Z,3.00
2023-03-15T21:12:44.075Z,2.42
2023-03-15T21:15:29.793Z,2.88
2023-03-15T21:18:17.372Z,3.25
2023-03-15T21:21:05.192Z,2.80
2023-03-15T21:23:50.484Z,2.80
2023-03-15T21:26:37.972Z,3.03
2023-03-15T21:29:23.302Z,2.70
2023-03-15T21:32:09.331Z,3.17
2023-03-15T21:34:54.482Z,3.30
2023-03-15T21:37:40.234Z,3.22
2023-03-15T21:40:25.635Z,3.40
2023-03-15T21:43:11.395Z,3.42
2023-03-15T21:46:05.832Z,3.28
2023-03-15T21:48:51.751Z,3.60
2023-03-15T21:51:37.282Z,3.60
2023-03-15T21:54:23.252Z,3.63
2023-03-15T21:57:08.700Z,3.72
2023-03-15T21:59:54.370Z,3.47
2023-03-15T22:02:39.529Z,3.40
2023-03-15T22:05:25.266Z,3.83
2023-03-15T22:08:10.390Z,3.70
2023-03-15T22:10:57.545Z,3.90
2023-03-15T22:13:43.294Z,3.70
2023-03-15T22:16:28.569Z,3.83
2023-03-15T22:19:14.449Z,4.63
2023-03-15T22:22:00.499Z,4.65
2023-03-15T22:24:46.199Z,3.88
2023-03-15T22:27:31.659Z,4.25
2023-03-15T22:30:18.687Z,4.35
2023-03-15T22:33:04.593Z,4.00
2023-03-15T22:35:58.020Z,4.20
2023-03-15T22:38:50.111Z,3.92
2023-03-15T22:41:35.750Z,4.13
2023-03-15T22:44:21.094Z,3.97
2023-03-15T22:47:08.123Z,3.95
2023-03-15T22:49:55.343Z,3.85
2023-03-15T22:52:41.114Z,4.15
2023-03-15T22:55:26.950Z,4.20
2023-03-15T22:58:12.293Z,4.55
2023-03-15T23:00:58.019Z,4.10
2023-03-15T23:03:43.282Z,3.90
2023-03-15T23:06:28.792Z,4.55
2023-03-15T23:09:14.105Z,4.22
2023-03-15T23:11:59.456Z,4.25
2023-03-15T23:14:44.828Z,4.10
2023-03-15T23:17:30.212Z,4.60
2023-03-15T23:20:17.737Z,4.40
2023-03-15T23:23:02.958Z,4.43
2023-03-15T23:25:50.645Z,4.60
2023-03-15T23:28:36.384Z,4.40
2023-03-15T23:31:21.959Z,4.60
2023-03-15T23:34:08.952Z,4.35
2023-03-15T23:36:54.296Z,4.45
2023-03-15T23:39:39.614Z,3.90
2023-03-15T23:42:25.891Z,4.13
2023-03-15T23:45:12.841Z,3.88
2023-03-15T23:47:58.491Z,4.03
2023-03-15T23:50:44.299Z,4.05
2023-03-15T23:53:30.041Z,3.83
2023-03-15T23:56:15.513Z,4.32
2023-03-15T23:59:00.848Z,3.90
